sensor_id;sensor_type;location;lat;lon;timestamp;P1;durP1;ratioP1;P2;durP2;ratioP2
63555;SDS011;49700;48.072;7.800;2023-06-04T00:00:35;10.57;;;5.07;;
63555;SDS011;49700;48.072;7.800;2023-06-04T00:03:00;9.03;;;6.27;;
63555;SDS011;49700;48.072;7.800;2023-06-04T00:05:26;8.53;;;6.20;;
63555;SDS011;49700;48.072;7.800;2023-06-04T00:07:51;6.77;;;5.97;;
63555;SDS011;49700;48.072;7.800;2023-06-04T00:10:17;6.83;;;5.70;;
63555;SDS011;49700;48.072;7.800;2023-06-04T00:12:42;6.70;;;6.10;;
63555;SDS011;49700;48.072;7.800;2023-06-04T00:15:08;6.23;;;5.63;;
63555;SDS011;49700;48.072;7.800;2023-06-04T00:17:34;7.57;;;5.67;;
63555;SDS011;49700;48.072;7.800;2023-06-04T00:20:05;7.23;;;6.10;;
63555;SDS011;49700;48.072;7.800;2023-06-04T00:23:01;7.43;;;6.00;;
63555;SDS011;49700;48.072;7.800;2023-06-04T00:25:58;7.57;;;5.80;;
63555;SDS011;49700;48.072;7.800;2023-06-04T00:28:32;7.80;;;5.93;;
63555;SDS011;49700;48.072;7.800;2023-06-04T00:30:58;7.20;;;5.93;;
63555;SDS011;49700;48.072;7.800;2023-06-04T00:33:23;8.70;;;7.03;;
63555;SDS011;49700;48.072;7.800;2023-06-04T00:35:48;6.70;;;6.10;;
63555;SDS011;49700;48.072;7.800;2023-06-04T00:38:14;9.30;;;5.63;;
63555;SDS011;49700;48.072;7.800;2023-06-04T00:40:40;9.13;;;7.43;;
63555;SDS011;49700;48.072;7.800;2023-06-04T00:43:05;9.63;;;6.07;;
63555;SDS011;49700;48.072;7.800;2023-06-04T00:45:30;6.60;;;5.43;;
63555;SDS011;49700;48.072;7.800;2023-06-04T00:47:57;8.17;;;6.30;;
63555;SDS011;49700;48.072;7.800;2023-06-04T00:50:23;7.47;;;6.47;;
63555;SDS011;49700;48.072;7.800;2023-06-04T00:52:49;7.60;;;6.80;;
63555;SDS011;49700;48.072;7.800;2023-06-04T00:55:15;11.57;;;7.73;;
63555;SDS011;49700;48.072;7.800;2023-06-04T00:57:43;6.97;;;5.60;;
63555;SDS011;49700;48.072;7.800;2023-06-04T01:00:08;6.50;;;5.73;;
63555;SDS011;49700;48.072;7.800;2023-06-04T01:02:35;7.03;;;6.33;;
63555;SDS011;49700;48.072;7.800;2023-06-04T01:07:37;10.57;;;6.53;;
63555;SDS011;49700;48.072;7.800;2023-06-04T01:10:06;6.97;;;5.73;;
63555;SDS011;49700;48.072;7.800;2023-06-04T01:12:32;7.33;;;5.53;;
63555;SDS011;49700;48.072;7.800;2023-06-04T01:14:57;5.80;;;4.90;;
63555;SDS011;49700;48.072;7.800;2023-06-04T01:17:30;5.97;;;5.03;;
63555;SDS011;49700;48.072;7.800;2023-06-04T01:20:18;7.37;;;6.43;;
63555;SDS011;49700;48.072;7.800;2023-06-04T01:22:48;6.43;;;4.70;;
63555;SDS011;49700;48.072;7.800;2023-06-04T01:25:26;8.00;;;5.47;;
63555;SDS011;49700;48.072;7.800;2023-06-04T01:27:57;6.00;;;5.40;;
63555;SDS011;49700;48.072;7.800;2023-06-04T01:30:24;6.37;;;5.70;;
63555;SDS011;49700;48.072;7.800;2023-06-04T01:32:54;7.70;;;5.73;;
63555;SDS011;49700;48.072;7.800;2023-06-04T01:35:20;7.40;;;5.60;;
63555;SDS011;49700;48.072;7.800;2023-06-04T01:37:46;7.10;;;5.30;;
63555;SDS011;49700;48.072;7.800;2023-06-04T01:40:12;5.77;;;4.93;;
63555;SDS011;49700;48.072;7.800;2023-06-04T01:42:39;7.90;;;5.37;;
63555;SDS011;49700;48.072;7.800;2023-06-04T01:45:05;5.10;;;4.47;;
63555;SDS011;49700;48.072;7.800;2023-06-04T01:47:31;5.77;;;4.67;;
63555;SDS011;49700;48.072;7.800;2023-06-04T01:49:56;8.13;;;6.07;;
63555;SDS011;49700;48.072;7.800;2023-06-04T01:52:22;6.27;;;4.40;;
63555;SDS011;49700;48.072;7.800;2023-06-04T01:54:47;7.93;;;4.80;;
63555;SDS011;49700;48.072;7.800;2023-06-04T01:57:21;6.67;;;5.97;;
63555;SDS011;49700;48.072;7.800;2023-06-04T01:59:47;5.30;;;4.80;;
63555;SDS011;49700;48.072;7.800;2023-06-04T02:02:13;11.00;;;5.00;;
63555;SDS011;49700;48.072;7.800;2023-06-04T02:04:39;5.97;;;4.53;;
63555;SDS011;49700;48.072;7.800;2023-06-04T02:07:07;9.17;;;4.80;;
63555;SDS011;49700;48.072;7.800;2023-06-04T02:09:38;6.20;;;5.20;;
63555;SDS011;49700;48.072;7.800;2023-06-04T02:12:05;6.20;;;5.60;;
63555;SDS011;49700;48.072;7.800;2023-06-04T02:14:31;9.23;;;5.77;;
63555;SDS011;49700;48.072;7.800;2023-06-04T02:16:56;7.70;;;5.17;;
63555;SDS011;49700;48.072;7.800;2023-06-04T02:19:26;6.70;;;6.00;;
63555;SDS011;49700;48.072;7.800;2023-06-04T02:21:55;5.40;;;4.90;;
63555;SDS011;49700;48.072;7.800;2023-06-04T02:24:21;5.67;;;4.80;;
63555;SDS011;49700;48.072;7.800;2023-06-04T02:26:47;6.43;;;5.13;;
63555;SDS011;49700;48.072;7.800;2023-06-04T02:29:12;6.13;;;4.93;;
63555;SDS011;49700;48.072;7.800;2023-06-04T02:31:38;7.70;;;4.93;;
63555;SDS011;49700;48.072;7.800;2023-06-04T02:34:04;6.60;;;5.53;;
63555;SDS011;49700;48.072;7.800;2023-06-04T02:36:29;6.63;;;6.03;;
63555;SDS011;49700;48.072;7.800;2023-06-04T02:38:55;7.60;;;5.70;;
63555;SDS011;49700;48.072;7.800;2023-06-04T02:41:21;6.80;;;5.27;;
63555;SDS011;49700;48.072;7.800;2023-06-04T02:43:46;7.80;;;5.40;;
63555;SDS011;49700;48.072;7.800;2023-06-04T02:46:12;6.63;;;5.03;;
63555;SDS011;49700;48.072;7.800;2023-06-04T02:48:37;5.77;;;4.40;;
63555;SDS011;49700;48.072;7.800;2023-06-04T02:51:02;6.60;;;4.90;;
63555;SDS011;49700;48.072;7.800;2023-06-04T02:53:28;8.80;;;4.77;;
63555;SDS011;49700;48.072;7.800;2023-06-04T02:55:53;5.20;;;4.70;;
63555;SDS011;49700;48.072;7.800;2023-06-04T02:58:19;6.73;;;4.60;;
63555;SDS011;49700;48.072;7.800;2023-06-04T03:00:46;6.10;;;4.30;;
63555;SDS011;49700;48.072;7.800;2023-06-04T03:03:12;6.27;;;4.60;;
63555;SDS011;49700;48.072;7.800;2023-06-04T03:05:37;7.10;;;4.83;;
63555;SDS011;49700;48.072;7.800;2023-06-04T03:08:04;6.90;;;4.30;;
63555;SDS011;49700;48.072;7.800;2023-06-04T03:10:30;5.87;;;4.37;;
63555;SDS011;49700;48.072;7.800;2023-06-04T03:12:56;5.40;;;4.30;;
63555;SDS011;49700;48.072;7.800;2023-06-04T03:15:22;9.40;;;4.30;;
63555;SDS011;49700;48.072;7.800;2023-06-04T03:17:48;6.77;;;4.50;;
63555;SDS011;49700;48.072;7.800;2023-06-04T03:20:13;4.80;;;4.40;;
63555;SDS011;49700;48.072;7.800;2023-06-04T03:22:39;7.90;;;3.90;;
63555;SDS011;49700;48.072;7.800;2023-06-04T03:25:05;6.60;;;4.07;;
63555;SDS011;49700;48.072;7.800;2023-06-04T03:27:32;7.30;;;4.30;;
63555;SDS011;49700;48.072;7.800;2023-06-04T03:29:58;3.70;;;3.33;;
63555;SDS011;49700;48.072;7.800;2023-06-04T03:32:24;6.73;;;4.67;;
63555;SDS011;49700;48.072;7.800;2023-06-04T03:34:50;6.80;;;3.95;;
63555;SDS011;49700;48.072;7.800;2023-06-04T03:37:17;4.20;;;3.80;;
63555;SDS011;49700;48.072;7.800;2023-06-04T03:39:43;6.40;;;3.67;;
63555;SDS011;49700;48.072;7.800;2023-06-04T03:42:11;6.23;;;3.73;;
63555;SDS011;49700;48.072;7.800;2023-06-04T03:44:37;6.27;;;3.70;;
63555;SDS011;49700;48.072;7.800;2023-06-04T03:47:03;4.90;;;4.27;;
63555;SDS011;49700;48.072;7.800;2023-06-04T03:49:29;4.07;;;3.43;;
63555;SDS011;49700;48.072;7.800;2023-06-04T03:51:54;6.20;;;3.10;;
63555;SDS011;49700;48.072;7.800;2023-06-04T03:54:21;6.33;;;3.87;;
63555;SDS011;49700;48.072;7.800;2023-06-04T03:56:48;10.07;;;4.33;;
63555;SDS011;49700;48.072;7.800;2023-06-04T03:59:14;5.03;;;3.20;;
63555;SDS011;49700;48.072;7.800;2023-06-04T04:01:41;5.60;;;3.83;;
63555;SDS011;49700;48.072;7.800;2023-06-04T04:04:07;5.70;;;5.20;;
63555;SDS011;49700;48.072;7.800;2023-06-04T04:06:33;5.37;;;3.30;;
63555;SDS011;49700;48.072;7.800;2023-06-04T04:08:58;6.10;;;3.57;;
63555;SDS011;49700;48.072;7.800;2023-06-04T04:11:24;5.90;;;3.33;;
63555;SDS011;49700;48.072;7.800;2023-06-04T04:13:50;3.27;;;2.97;;
63555;SDS011;49700;48.072;7.800;2023-06-04T04:16:17;4.43;;;3.30;;
63555;SDS011;49700;48.072;7.800;2023-06-04T04:18:42;5.40;;;3.30;;
63555;SDS011;49700;48.072;7.800;2023-06-04T04:21:11;3.03;;;2.77;;
63555;SDS011;49700;48.072;7.800;2023-06-04T04:23:38;4.63;;;2.70;;
63555;SDS011;49700;48.072;7.800;2023-06-04T04:26:07;5.27;;;4.10;;
63555;SDS011;49700;48.072;7.800;2023-06-04T04:28:35;6.97;;;4.27;;
63555;SDS011;49700;48.072;7.800;2023-06-04T04:31:01;5.73;;;3.37;;
63555;SDS011;49700;48.072;7.800;2023-06-04T04:33:29;9.20;;;3.70;;
63555;SDS011;49700;48.072;7.800;2023-06-04T04:35:58;3.83;;;2.97;;
63555;SDS011;49700;48.072;7.800;2023-06-04T04:38:27;5.10;;;3.20;;
63555;SDS011;49700;48.072;7.800;2023-06-04T04:40:59;3.70;;;3.03;;
63555;SDS011;49700;48.072;7.800;2023-06-04T04:43:32;5.10;;;4.00;;
63555;SDS011;49700;48.072;7.800;2023-06-04T04:46:07;3.90;;;3.10;;
63555;SDS011;49700;48.072;7.800;2023-06-04T04:48:33;3.33;;;3.03;;
63555;SDS011;49700;48.072;7.800;2023-06-04T04:50:59;3.00;;;2.70;;
63555;SDS011;49700;48.072;7.800;2023-06-04T04:53:25;6.37;;;3.20;;
63555;SDS011;49700;48.072;7.800;2023-06-04T04:55:52;4.90;;;3.60;;
63555;SDS011;49700;48.072;7.800;2023-06-04T04:58:17;4.57;;;2.70;;
63555;SDS011;49700;48.072;7.800;2023-06-04T05:00:42;3.10;;;2.80;;
63555;SDS011;49700;48.072;7.800;2023-06-04T05:03:08;3.50;;;3.00;;
63555;SDS011;49700;48.072;7.800;2023-06-04T05:05:34;5.93;;;3.63;;
63555;SDS011;49700;48.072;7.800;2023-06-04T05:08:01;4.47;;;3.63;;
63555;SDS011;49700;48.072;7.800;2023-06-04T05:10:32;4.40;;;3.10;;
63555;SDS011;49700;48.072;7.800;2023-06-04T05:12:59;4.97;;;3.67;;
63555;SDS011;49700;48.072;7.800;2023-06-04T05:15:33;3.60;;;3.30;;
63555;SDS011;49700;48.072;7.800;2023-06-04T05:17:58;5.20;;;3.57;;
63555;SDS011;49700;48.072;7.800;2023-06-04T05:20:28;4.43;;;3.90;;
63555;SDS011;49700;48.072;7.800;2023-06-04T05:22:55;3.83;;;3.40;;
63555;SDS011;49700;48.072;7.800;2023-06-04T05:25:21;5.80;;;2.97;;
63555;SDS011;49700;48.072;7.800;2023-06-04T05:27:47;6.40;;;2.93;;
63555;SDS011;49700;48.072;7.800;2023-06-04T05:30:14;4.47;;;3.50;;
63555;SDS011;49700;48.072;7.800;2023-06-04T05:32:40;4.80;;;2.97;;
63555;SDS011;49700;48.072;7.800;2023-06-04T05:35:08;3.40;;;2.70;;
63555;SDS011;49700;48.072;7.800;2023-06-04T05:37:34;3.87;;;2.63;;
63555;SDS011;49700;48.072;7.800;2023-06-04T05:40:04;2.77;;;2.57;;
63555;SDS011;49700;48.072;7.800;2023-06-04T05:42:31;4.33;;;4.00;;
63555;SDS011;49700;48.072;7.800;2023-06-04T05:44:57;3.27;;;2.97;;
63555;SDS011;49700;48.072;7.800;2023-06-04T05:47:23;4.23;;;3.30;;
63555;SDS011;49700;48.072;7.800;2023-06-04T05:49:49;6.17;;;3.70;;
63555;SDS011;49700;48.072;7.800;2023-06-04T05:52:14;3.53;;;3.23;;
63555;SDS011;49700;48.072;7.800;2023-06-04T05:54:41;9.07;;;3.37;;
63555;SDS011;49700;48.072;7.800;2023-06-04T05:57:07;3.23;;;2.93;;
63555;SDS011;49700;48.072;7.800;2023-06-04T05:59:32;4.17;;;2.83;;
63555;SDS011;49700;48.072;7.800;2023-06-04T06:01:59;3.47;;;3.17;;
63555;SDS011;49700;48.072;7.800;2023-06-04T06:04:25;4.47;;;2.90;;
63555;SDS011;49700;48.072;7.800;2023-06-04T06:06:51;4.40;;;2.83;;
63555;SDS011;49700;48.072;7.800;2023-06-04T06:09:17;6.97;;;3.40;;
63555;SDS011;49700;48.072;7.800;2023-06-04T06:11:43;4.50;;;3.00;;
63555;SDS011;49700;48.072;7.800;2023-06-04T06:14:08;5.10;;;3.30;;
63555;SDS011;49700;48.072;7.800;2023-06-04T06:16:34;4.40;;;2.90;;
63555;SDS011;49700;48.072;7.800;2023-06-04T06:19:00;4.20;;;2.70;;
63555;SDS011;49700;48.072;7.800;2023-06-04T06:21:26;7.97;;;3.43;;
63555;SDS011;49700;48.072;7.800;2023-06-04T06:23:53;3.27;;;2.97;;
63555;SDS011;49700;48.072;7.800;2023-06-04T06:26:19;5.60;;;2.83;;
63555;SDS011;49700;48.072;7.800;2023-06-04T06:28:47;4.40;;;3.17;;
63555;SDS011;49700;48.072;7.800;2023-06-04T06:31:14;3.03;;;2.73;;
63555;SDS011;49700;48.072;7.800;2023-06-04T06:33:40;6.60;;;2.90;;
63555;SDS011;49700;48.072;7.800;2023-06-04T06:36:06;3.83;;;3.20;;
63555;SDS011;49700;48.072;7.800;2023-06-04T06:38:32;3.73;;;3.17;;
63555;SDS011;49700;48.072;7.800;2023-06-04T06:40:58;3.90;;;2.90;;
63555;SDS011;49700;48.072;7.800;2023-06-04T06:43:23;4.57;;;3.03;;
63555;SDS011;49700;48.072;7.800;2023-06-04T06:45:49;4.37;;;3.00;;
63555;SDS011;49700;48.072;7.800;2023-06-04T06:48:14;3.87;;;3.00;;
63555;SDS011;49700;48.072;7.800;2023-06-04T06:50:40;4.80;;;2.73;;
63555;SDS011;49700;48.072;7.800;2023-06-04T06:53:05;2.97;;;2.40;;
63555;SDS011;49700;48.072;7.800;2023-06-04T06:55:30;3.80;;;3.40;;
63555;SDS011;49700;48.072;7.800;2023-06-04T06:57:56;6.10;;;2.43;;
63555;SDS011;49700;48.072;7.800;2023-06-04T07:00:21;4.77;;;2.70;;
63555;SDS011;49700;48.072;7.800;2023-06-04T07:02:46;5.00;;;2.97;;
63555;SDS011;49700;48.072;7.800;2023-06-04T07:05:13;3.50;;;3.20;;
63555;SDS011;49700;48.072;7.800;2023-06-04T07:07:41;3.73;;;2.60;;
63555;SDS011;49700;48.072;7.800;2023-06-04T07:10:09;2.67;;;2.43;;
63555;SDS011;49700;48.072;7.800;2023-06-04T07:12:35;7.87;;;3.20;;
63555;SDS011;49700;48.072;7.800;2023-06-04T07:15:01;3.47;;;2.87;;
63555;SDS011;49700;48.072;7.800;2023-06-04T07:17:26;3.60;;;2.73;;
63555;SDS011;49700;48.072;7.800;2023-06-04T07:19:51;3.70;;;2.87;;
63555;SDS011;49700;48.072;7.800;2023-06-04T07:22:17;4.87;;;3.00;;
63555;SDS011;49700;48.072;7.800;2023-06-04T07:24:42;3.97;;;3.53;;
63555;SDS011;49700;48.072;7.800;2023-06-04T07:27:11;3.77;;;2.60;;
63555;SDS011;49700;48.072;7.800;2023-06-04T07:29:37;3.30;;;2.77;;
63555;SDS011;49700;48.072;7.800;2023-06-04T07:32:03;7.13;;;3.07;;
63555;SDS011;49700;48.072;7.800;2023-06-04T07:34:28;2.93;;;2.57;;
63555;SDS011;49700;48.072;7.800;2023-06-04T07:36:54;2.90;;;2.60;;
63555;SDS011;49700;48.072;7.800;2023-06-04T07:39:19;6.27;;;2.93;;
63555;SDS011;49700;48.072;7.800;2023-06-04T07:41:45;3.30;;;2.60;;
63555;SDS011;49700;48.072;7.800;2023-06-04T07:44:10;3.73;;;3.43;;
63555;SDS011;49700;48.072;7.800;2023-06-04T07:46:35;5.00;;;2.90;;
63555;SDS011;49700;48.072;7.800;2023-06-04T07:49:01;3.27;;;2.67;;
63555;SDS011;49700;48.072;7.800;2023-06-04T07:51:26;2.73;;;2.47;;
63555;SDS011;49700;48.072;7.800;2023-06-04T07:53:51;6.47;;;2.70;;
63555;SDS011;49700;48.072;7.800;2023-06-04T07:56:17;4.90;;;3.27;;
63555;SDS011;49700;48.072;7.800;2023-06-04T07:58:43;2.67;;;2.27;;
63555;SDS011;49700;48.072;7.800;2023-06-04T08:01:09;2.80;;;2.10;;
63555;SDS011;49700;48.072;7.800;2023-06-04T08:03:34;3.40;;;2.77;;
63555;SDS011;49700;48.072;7.800;2023-06-04T08:06:00;4.33;;;2.43;;
63555;SDS011;49700;48.072;7.800;2023-06-04T08:08:26;3.10;;;2.63;;
63555;SDS011;49700;48.072;7.800;2023-06-04T08:10:52;2.63;;;2.30;;
63555;SDS011;49700;48.072;7.800;2023-06-04T08:13:17;5.10;;;2.60;;
63555;SDS011;49700;48.072;7.800;2023-06-04T08:15:43;4.40;;;3.00;;
63555;SDS011;49700;48.072;7.800;2023-06-04T08:18:08;4.03;;;2.67;;
63555;SDS011;49700;48.072;7.800;2023-06-04T08:20:35;5.13;;;3.10;;
63555;SDS011;49700;48.072;7.800;2023-06-04T08:23:00;4.03;;;2.83;;
63555;SDS011;49700;48.072;7.800;2023-06-04T08:25:27;4.73;;;3.60;;
63555;SDS011;49700;48.072;7.800;2023-06-04T08:27:52;3.80;;;2.87;;
63555;SDS011;49700;48.072;7.800;2023-06-04T08:30:18;8.30;;;3.70;;
63555;SDS011;49700;48.072;7.800;2023-06-04T08:32:43;4.77;;;3.37;;
63555;SDS011;49700;48.072;7.800;2023-06-04T08:35:08;4.07;;;3.20;;
63555;SDS011;49700;48.072;7.800;2023-06-04T08:37:34;3.53;;;3.10;;
63555;SDS011;49700;48.072;7.800;2023-06-04T08:40:00;2.93;;;2.70;;
63555;SDS011;49700;48.072;7.800;2023-06-04T08:42:29;3.37;;;2.20;;
63555;SDS011;49700;48.072;7.800;2023-06-04T08:44:56;4.27;;;2.83;;
63555;SDS011;49700;48.072;7.800;2023-06-04T08:47:22;3.37;;;2.60;;
63555;SDS011;49700;48.072;7.800;2023-06-04T08:49:51;7.20;;;3.40;;
63555;SDS011;49700;48.072;7.800;2023-06-04T08:52:17;4.67;;;3.00;;
63555;SDS011;49700;48.072;7.800;2023-06-04T08:54:48;4.70;;;4.07;;
63555;SDS011;49700;48.072;7.800;2023-06-04T08:57:14;3.70;;;3.30;;
63555;SDS011;49700;48.072;7.800;2023-06-04T08:59:40;3.80;;;2.77;;
63555;SDS011;49700;48.072;7.800;2023-06-04T09:02:06;3.60;;;3.30;;
63555;SDS011;49700;48.072;7.800;2023-06-04T09:04:33;4.50;;;2.87;;
63555;SDS011;49700;48.072;7.800;2023-06-04T09:07:00;2.70;;;2.37;;
63555;SDS011;49700;48.072;7.800;2023-06-04T09:09:27;3.30;;;2.40;;
63555;SDS011;49700;48.072;7.800;2023-06-04T09:11:55;3.60;;;2.53;;
63555;SDS011;49700;48.072;7.800;2023-06-04T09:14:25;4.57;;;2.80;;
63555;SDS011;49700;48.072;7.800;2023-06-04T09:16:52;3.80;;;3.00;;
63555;SDS011;49700;48.072;7.800;2023-06-04T09:19:20;3.33;;;3.00;;
63555;SDS011;49700;48.072;7.800;2023-06-04T09:21:49;2.53;;;2.20;;
63555;SDS011;49700;48.072;7.800;2023-06-04T09:24:15;10.70;;;3.30;;
63555;SDS011;49700;48.072;7.800;2023-06-04T09:26:41;4.23;;;3.03;;
63555;SDS011;49700;48.072;7.800;2023-06-04T09:29:06;5.03;;;3.33;;
63555;SDS011;49700;48.072;7.800;2023-06-04T09:31:32;2.90;;;2.37;;
63555;SDS011;49700;48.072;7.800;2023-06-04T09:34:05;4.70;;;4.30;;
63555;SDS011;49700;48.072;7.800;2023-06-04T09:36:31;4.47;;;3.50;;
63555;SDS011;49700;48.072;7.800;2023-06-04T09:39:01;5.57;;;3.10;;
63555;SDS011;49700;48.072;7.800;2023-06-04T09:41:39;5.00;;;2.87;;
63555;SDS011;49700;48.072;7.800;2023-06-04T09:44:05;5.67;;;3.30;;
63555;SDS011;49700;48.072;7.800;2023-06-04T09:46:31;4.10;;;3.70;;
63555;SDS011;49700;48.072;7.800;2023-06-04T09:49:00;4.20;;;3.17;;
63555;SDS011;49700;48.072;7.800;2023-06-04T09:51:28;3.40;;;2.87;;
63555;SDS011;49700;48.072;7.800;2023-06-04T09:53:54;4.73;;;4.00;;
63555;SDS011;49700;48.072;7.800;2023-06-04T09:56:21;5.63;;;3.57;;
63555;SDS011;49700;48.072;7.800;2023-06-04T09:58:47;4.27;;;3.37;;
63555;SDS011;49700;48.072;7.800;2023-06-04T10:01:14;6.20;;;3.97;;
63555;SDS011;49700;48.072;7.800;2023-06-04T10:03:40;5.23;;;3.90;;
63555;SDS011;49700;48.072;7.800;2023-06-04T10:06:14;4.40;;;4.00;;
63555;SDS011;49700;48.072;7.800;2023-06-04T10:08:44;4.37;;;3.97;;
63555;SDS011;49700;48.072;7.800;2023-06-04T10:11:11;5.33;;;3.53;;
63555;SDS011;49700;48.072;7.800;2023-06-04T10:13:59;5.20;;;4.27;;
63555;SDS011;49700;48.072;7.800;2023-06-04T10:16:27;5.60;;;4.40;;
63555;SDS011;49700;48.072;7.800;2023-06-04T10:18:55;5.07;;;3.70;;
63555;SDS011;49700;48.072;7.800;2023-06-04T10:21:21;5.03;;;4.53;;
63555;SDS011;49700;48.072;7.800;2023-06-04T10:23:48;6.90;;;4.63;;
63555;SDS011;49700;48.072;7.800;2023-06-04T10:26:15;5.80;;;3.53;;
63555;SDS011;49700;48.072;7.800;2023-06-04T10:28:42;4.70;;;3.97;;
63555;SDS011;49700;48.072;7.800;2023-06-04T10:31:10;6.07;;;4.00;;
63555;SDS011;49700;48.072;7.800;2023-06-04T10:33:37;4.83;;;4.40;;
63555;SDS011;49700;48.072;7.800;2023-06-04T10:36:19;6.47;;;4.60;;
63555;SDS011;49700;48.072;7.800;2023-06-04T10:38:47;4.50;;;4.07;;
63555;SDS011;49700;48.072;7.800;2023-06-04T10:41:16;4.40;;;4.00;;
63555;SDS011;49700;48.072;7.800;2023-06-04T10:43:44;5.07;;;4.50;;
63555;SDS011;49700;48.072;7.800;2023-06-04T10:46:14;5.45;;;3.95;;
63555;SDS011;49700;48.072;7.800;2023-06-04T10:48:50;5.20;;;4.17;;
63555;SDS011;49700;48.072;7.800;2023-06-04T10:51:30;5.13;;;3.67;;
63555;SDS011;49700;48.072;7.800;2023-06-04T10:53:59;4.97;;;3.83;;
63555;SDS011;49700;48.072;7.800;2023-06-04T10:56:26;6.13;;;4.90;;
63555;SDS011;49700;48.072;7.800;2023-06-04T10:59:00;4.80;;;4.17;;
63555;SDS011;49700;48.072;7.800;2023-06-04T11:01:40;6.73;;;4.43;;
63555;SDS011;49700;48.072;7.800;2023-06-04T11:04:06;8.10;;;5.43;;
63555;SDS011;49700;48.072;7.800;2023-06-04T11:06:31;5.63;;;4.00;;
63555;SDS011;49700;48.072;7.800;2023-06-04T11:09:04;5.73;;;4.50;;
63555;SDS011;49700;48.072;7.800;2023-06-04T11:11:33;5.87;;;4.23;;
63555;SDS011;49700;48.072;7.800;2023-06-04T11:14:08;9.53;;;4.53;;
63555;SDS011;49700;48.072;7.800;2023-06-04T11:16:35;5.57;;;4.50;;
63555;SDS011;49700;48.072;7.800;2023-06-04T11:19:00;6.70;;;3.93;;
63555;SDS011;49700;48.072;7.800;2023-06-04T11:21:27;7.30;;;5.00;;
63555;SDS011;49700;48.072;7.800;2023-06-04T11:23:59;5.60;;;4.53;;
63555;SDS011;49700;48.072;7.800;2023-06-04T11:26:34;8.90;;;5.27;;
63555;SDS011;49700;48.072;7.800;2023-06-04T11:29:01;7.70;;;4.83;;
63555;SDS011;49700;48.072;7.800;2023-06-04T11:31:42;6.77;;;4.70;;
63555;SDS011;49700;48.072;7.800;2023-06-04T11:34:08;6.10;;;4.20;;
63555;SDS011;49700;48.072;7.800;2023-06-04T11:36:34;4.50;;;3.90;;
63555;SDS011;49700;48.072;7.800;2023-06-04T11:39:02;7.90;;;4.73;;
63555;SDS011;49700;48.072;7.800;2023-06-04T11:41:31;5.70;;;5.03;;
63555;SDS011;49700;48.072;7.800;2023-06-04T11:44:04;6.10;;;4.53;;
63555;SDS011;49700;48.072;7.800;2023-06-04T11:46:34;5.50;;;4.93;;
63555;SDS011;49700;48.072;7.800;2023-06-04T11:49:01;6.20;;;5.40;;
63555;SDS011;49700;48.072;7.800;2023-06-04T11:51:27;8.80;;;4.83;;
63555;SDS011;49700;48.072;7.800;2023-06-04T11:53:56;6.00;;;4.90;;
63555;SDS011;49700;48.072;7.800;2023-06-04T11:56:23;9.20;;;5.60;;
63555;SDS011;49700;48.072;7.800;2023-06-04T11:58:50;5.80;;;4.30;;
63555;SDS011;49700;48.072;7.800;2023-06-04T12:01:16;6.50;;;4.67;;
63555;SDS011;49700;48.072;7.800;2023-06-04T12:03:42;7.63;;;5.00;;
63555;SDS011;49700;48.072;7.800;2023-06-04T12:08:44;5.67;;;3.17;;
63555;SDS011;49700;48.072;7.800;2023-06-04T12:11:19;5.27;;;4.23;;
63555;SDS011;49700;48.072;7.800;2023-06-04T12:14:05;5.87;;;3.70;;
63555;SDS011;49700;48.072;7.800;2023-06-04T12:16:31;6.80;;;4.10;;
63555;SDS011;49700;48.072;7.800;2023-06-04T12:19:10;4.30;;;3.30;;
63555;SDS011;49700;48.072;7.800;2023-06-04T12:21:37;4.07;;;3.60;;
63555;SDS011;49700;48.072;7.800;2023-06-04T12:26:33;4.63;;;4.20;;
63555;SDS011;49700;48.072;7.800;2023-06-04T12:29:08;5.20;;;4.03;;
63555;SDS011;49700;48.072;7.800;2023-06-04T12:31:35;5.40;;;4.67;;
63555;SDS011;49700;48.072;7.800;2023-06-04T12:34:01;6.30;;;4.40;;
63555;SDS011;49700;48.072;7.800;2023-06-04T12:36:27;5.30;;;4.80;;
63555;SDS011;49700;48.072;7.800;2023-06-04T12:38:55;5.77;;;4.67;;
63555;SDS011;49700;48.072;7.800;2023-06-04T12:41:24;4.20;;;3.67;;
63555;SDS011;49700;48.072;7.800;2023-06-04T12:43:50;5.77;;;4.03;;
63555;SDS011;49700;48.072;7.800;2023-06-04T12:46:16;6.60;;;4.67;;
63555;SDS011;49700;48.072;7.800;2023-06-04T12:48:41;7.50;;;4.30;;
63555;SDS011;49700;48.072;7.800;2023-06-04T12:51:08;7.20;;;4.37;;
63555;SDS011;49700;48.072;7.800;2023-06-04T12:53:37;7.30;;;4.40;;
63555;SDS011;49700;48.072;7.800;2023-06-04T12:56:03;6.30;;;4.80;;
63555;SDS011;49700;48.072;7.800;2023-06-04T12:58:29;6.00;;;5.07;;
63555;SDS011;49700;48.072;7.800;2023-06-04T13:00:55;6.10;;;4.33;;
63555;SDS011;49700;48.072;7.800;2023-06-04T13:03:20;5.27;;;3.33;;
63555;SDS011;49700;48.072;7.800;2023-06-04T13:05:46;6.53;;;5.10;;
63555;SDS011;49700;48.072;7.800;2023-06-04T13:08:11;5.13;;;4.63;;
63555;SDS011;49700;48.072;7.800;2023-06-04T13:10:36;5.20;;;4.70;;
63555;SDS011;49700;48.072;7.800;2023-06-04T13:13:02;6.90;;;5.10;;
63555;SDS011;49700;48.072;7.800;2023-06-04T13:15:27;6.80;;;4.90;;
63555;SDS011;49700;48.072;7.800;2023-06-04T13:17:55;7.40;;;5.10;;
63555;SDS011;49700;48.072;7.800;2023-06-04T13:20:20;6.50;;;4.93;;
63555;SDS011;49700;48.072;7.800;2023-06-04T13:22:46;6.07;;;5.57;;
63555;SDS011;49700;48.072;7.800;2023-06-04T13:25:12;6.27;;;5.10;;
63555;SDS011;49700;48.072;7.800;2023-06-04T13:27:41;4.17;;;3.50;;
63555;SDS011;49700;48.072;7.800;2023-06-04T13:30:06;4.53;;;4.13;;
63555;SDS011;49700;48.072;7.800;2023-06-04T13:32:32;7.03;;;4.93;;
63555;SDS011;49700;48.072;7.800;2023-06-04T13:34:57;6.43;;;5.50;;
63555;SDS011;49700;48.072;7.800;2023-06-04T13:37:23;6.50;;;4.10;;
63555;SDS011;49700;48.072;7.800;2023-06-04T13:39:48;5.47;;;4.30;;
63555;SDS011;49700;48.072;7.800;2023-06-04T13:42:14;5.03;;;4.53;;
63555;SDS011;49700;48.072;7.800;2023-06-04T13:44:39;5.10;;;4.00;;
63555;SDS011;49700;48.072;7.800;2023-06-04T13:47:04;6.63;;;5.17;;
63555;SDS011;49700;48.072;7.800;2023-06-04T13:49:33;5.80;;;5.30;;
63555;SDS011;49700;48.072;7.800;2023-06-04T13:51:59;8.10;;;4.70;;
63555;SDS011;49700;48.072;7.800;2023-06-04T13:54:25;7.50;;;5.20;;
63555;SDS011;49700;48.072;7.800;2023-06-04T13:56:51;5.50;;;4.40;;
63555;SDS011;49700;48.072;7.800;2023-06-04T13:59:16;6.53;;;4.33;;
63555;SDS011;49700;48.072;7.800;2023-06-04T14:01:42;4.87;;;4.40;;
63555;SDS011;49700;48.072;7.800;2023-06-04T14:04:07;5.60;;;5.00;;
63555;SDS011;49700;48.072;7.800;2023-06-04T14:06:36;5.80;;;4.80;;
63555;SDS011;49700;48.072;7.800;2023-06-04T14:09:02;6.93;;;4.63;;
63555;SDS011;49700;48.072;7.800;2023-06-04T14:11:29;8.80;;;4.73;;
63555;SDS011;49700;48.072;7.800;2023-06-04T14:13:55;7.33;;;5.20;;
63555;SDS011;49700;48.072;7.800;2023-06-04T14:16:20;6.10;;;5.27;;
63555;SDS011;49700;48.072;7.800;2023-06-04T14:18:45;5.40;;;4.23;;
63555;SDS011;49700;48.072;7.800;2023-06-04T14:21:11;6.50;;;4.57;;
63555;SDS011;49700;48.072;7.800;2023-06-04T14:23:36;9.80;;;5.10;;
63555;SDS011;49700;48.072;7.800;2023-06-04T14:26:01;5.30;;;4.47;;
63555;SDS011;49700;48.072;7.800;2023-06-04T14:28:27;5.37;;;4.30;;
63555;SDS011;49700;48.072;7.800;2023-06-04T14:30:52;5.50;;;4.23;;
63555;SDS011;49700;48.072;7.800;2023-06-04T14:33:18;4.77;;;4.37;;
63555;SDS011;49700;48.072;7.800;2023-06-04T14:35:43;3.93;;;3.53;;
63555;SDS011;49700;48.072;7.800;2023-06-04T14:38:12;5.40;;;4.57;;
63555;SDS011;49700;48.072;7.800;2023-06-04T14:40:39;5.30;;;4.33;;
63555;SDS011;49700;48.072;7.800;2023-06-04T14:43:06;5.33;;;4.27;;
63555;SDS011;49700;48.072;7.800;2023-06-04T14:45:35;5.20;;;4.07;;
63555;SDS011;49700;48.072;7.800;2023-06-04T14:48:00;7.60;;;6.03;;
63555;SDS011;49700;48.072;7.800;2023-06-04T14:50:25;5.03;;;4.60;;
63555;SDS011;49700;48.072;7.800;2023-06-04T14:52:51;7.00;;;4.80;;
63555;SDS011;49700;48.072;7.800;2023-06-04T14:55:16;4.43;;;3.83;;